Time;durP1;ratioP1;P1;durP2;ratioP2;P2;SDS_P1;SDS_P2;PMS_P1;PMS_P2;Temp;Humidity;BMP_temperature;BMP_pressure;BME280_temperature;BME280_humidity;BME280_pressure;Samples;Min_cycle;Max_cycle;Signal;HPM_P1;HPM_P2
2023/07/09 00:02:08;;;;;;;4.70;3.97;;;24.00;92.30;;;;;;5048203;28;20046;-69
2023/07/09 00:04:35;;;;;;;4.55;4.15;;;24.00;92.40;;;;;;5036877;28;20036;-69
2023/07/09 00:07:03;;;;;;;5.03;3.97;;;23.90;92.50;;;;;;5056637;28;20047;-69
2023/07/09 00:09:30;;;;;;;5.75;4.03;;;23.90;92.50;;;;;;5041741;28;20829;-69
2023/07/09 00:11:57;;;;;;;4.45;3.40;;;24.00;92.40;;;;;;5046196;28;20044;-69
2023/07/09 00:14:24;;;;;;;5.53;4.13;;;24.00;92.20;;;;;;5029025;28;20050;-68
2023/07/09 00:16:50;;;;;;;4.97;3.70;;;24.00;92.10;;;;;;5047797;28;20024;-69
2023/07/09 00:19:20;;;;;;;5.65;3.83;;;24.00;92.10;;;;;;5044187;28;21192;-70
2023/07/09 00:21:49;;;;;;;6.55;3.95;;;23.90;92.30;;;;;;5029891;28;20047;-69
2023/07/09 00:24:15;;;;;;;4.57;3.78;;;23.90;92.50;;;;;;5057380;28;20028;-68
2023/07/09 00:26:42;;;;;;;5.00;3.85;;;23.90;92.70;;;;;;5056658;28;20048;-68
2023/07/09 00:29:10;;;;;;;4.25;3.40;;;23.80;92.80;;;;;;5044128;28;20059;-68
2023/07/09 00:31:43;;;;;;;5.97;3.40;;;23.80;92.80;;;;;;5028378;28;20415;-68
2023/07/09 00:34:13;;;;;;;4.78;3.10;;;23.80;92.70;;;;;;5028543;28;20122;-69
2023/07/09 00:36:45;;;;;;;4.78;3.10;;;23.80;92.60;;;;;;5045947;28;20032;-69
2023/07/09 00:39:21;;;;;;;4.28;3.28;;;23.80;92.80;;;;;;5044091;28;20036;-69
2023/07/09 00:41:49;;;;;;;4.40;3.05;;;23.70;92.80;;;;;;5027831;28;20035;-69
2023/07/09 00:44:31;;;;;;;4.20;3.22;;;23.70;93.00;;;;;;5053217;28;20043;-69
2023/07/09 00:47:01;;;;;;;4.60;3.03;;;23.60;93.10;;;;;;5071474;28;21201;-69
2023/07/09 00:49:46;;;;;;;4.43;3.33;;;23.60;93.40;;;;;;5044403;28;20367;-69
2023/07/09 00:52:29;;;;;;;4.22;3.22;;;23.50;93.60;;;;;;5044343;28;20039;-69
2023/07/09 00:54:58;;;;;;;5.05;3.55;;;23.50;93.60;;;;;;5047801;28;20024;-69
2023/07/09 00:57:27;;;;;;;4.68;3.85;;;23.50;93.70;;;;;;5049027;28;20032;-69
2023/07/09 00:59:59;;;;;;;4.35;3.40;;;23.40;93.70;;;;;;5043118;28;20035;-68
2023/07/09 01:02:26;;;;;;;;;;;23.50;93.70;;;;;;5041545;28;20032;-69
2023/07/09 01:05:00;;;;;;;4.20;2.95;;;23.40;93.60;;;;;;5055453;28;20389;-69
2023/07/09 01:07:28;;;;;;;4.47;2.97;;;23.40;93.50;;;;;;5054522;28;20044;-69
2023/07/09 01:09:55;;;;;;;4.07;2.88;;;23.40;93.50;;;;;;5046802;28;20404;-69
2023/07/09 01:12:22;;;;;;;3.28;2.65;;;23.40;93.60;;;;;;5055770;28;20036;-69
2023/07/09 01:14:52;;;;;;;5.03;2.78;;;23.40;93.80;;;;;;5042818;28;20040;-69
2023/07/09 01:17:20;;;;;;;5.03;3.15;;;23.40;94.00;;;;;;5029516;28;20126;-69
2023/07/09 01:19:50;;;;;;;4.03;3.03;;;23.30;94.20;;;;;;5042647;28;20726;-69
2023/07/09 01:22:18;;;;;;;4.82;3.30;;;23.30;94.50;;;;;;5042990;28;20040;-69
2023/07/09 01:24:53;;;;;;;4.72;3.70;;;23.20;94.80;;;;;;5052469;28;20036;-69
2023/07/09 01:27:25;;;;;;;4.60;3.58;;;23.20;95.10;;;;;;5060672;28;20040;-69
2023/07/09 01:29:53;;;;;;;3.95;3.50;;;23.20;95.30;;;;;;5055317;28;20024;-69
2023/07/09 01:32:21;;;;;;;4.22;3.15;;;23.10;95.40;;;;;;5048392;28;20222;-69
2023/07/09 01:34:50;;;;;;;4.38;3.00;;;23.10;95.60;;;;;;5049341;28;20032;-69
2023/07/09 01:37:21;;;;;;;4.35;2.97;;;23.10;95.50;;;;;;5065853;28;20036;-69
2023/07/09 01:39:49;;;;;;;4.70;3.92;;;23.10;95.70;;;;;;5047431;28;20036;-69
2023/07/09 01:42:17;;;;;;;12.18;8.00;;;23.00;95.80;;;;;;5046976;28;20407;-70
2023/07/09 01:44:45;;;;;;;10.25;8.30;;;22.90;96.30;;;;;;5035404;28;20044;-69
2023/07/09 01:47:12;;;;;;;11.05;8.38;;;22.90;96.70;;;;;;5058687;28;20044;-70
2023/07/09 01:49:39;;;;;;;7.22;6.25;;;22.80;96.90;;;;;;5052371;28;20040;-69
2023/07/09 01:52:08;;;;;;;14.93;9.57;;;22.80;97.10;;;;;;5049650;28;20036;-69
2023/07/09 01:54:38;;;;;;;17.48;14.80;;;22.70;97.50;;;;;;5047633;28;20035;-69
2023/07/09 01:57:23;;;;;;;43.80;38.10;;;22.70;97.80;;;;;;5035652;28;21086;-70
2023/07/09 01:59:54;;;;;;;40.15;31.35;;;22.60;98.00;;;;;;5044770;28;20438;-69
2023/07/09 02:02:25;;;;;;;30.60;24.17;;;22.60;98.10;;;;;;5044304;28;20717;-69
2023/07/09 02:04:53;;;;;;;23.55;19.98;;;22.60;98.10;;;;;;5051394;28;21097;-69
2023/07/09 02:07:21;;;;;;;22.92;19.33;;;22.50;98.10;;;;;;5057855;28;20040;-70
2023/07/09 02:09:48;;;;;;;16.13;12.82;;;22.50;98.30;;;;;;5085227;27;20051;-69
2023/07/09 02:12:16;;;;;;;21.42;16.48;;;22.50;98.30;;;;;;5031996;28;20545;-69
2023/07/09 02:14:43;;;;;;;20.25;16.98;;;22.50;98.40;;;;;;5032994;28;20041;-70
2023/07/09 02:17:11;;;;;;;14.70;12.20;;;22.40;98.60;;;;;;5051723;28;20039;-69
2023/07/09 02:19:38;;;;;;;10.57;8.77;;;22.40;98.70;;;;;;5061961;28;20036;-69
2023/07/09 02:22:05;;;;;;;11.38;8.50;;;22.40;98.90;;;;;;5047759;28;20036;-69
2023/07/09 02:24:32;;;;;;;8.23;6.28;;;22.30;99.10;;;;;;5050027;28;20043;-69
2023/07/09 02:27:00;;;;;;;6.43;5.45;;;22.30;99.30;;;;;;5037643;28;20044;-69
2023/07/09 02:29:28;;;;;;;6.05;5.38;;;22.30;99.40;;;;;;5052436;28;20514;-69
2023/07/09 02:31:56;;;;;;;6.25;5.03;;;22.20;99.60;;;;;;5053324;28;20032;-70
2023/07/09 02:34:25;;;;;;;6.78;5.15;;;22.20;99.80;;;;;;5047871;28;20043;-69
2023/07/09 02:36:56;;;;;;;7.13;5.47;;;22.20;99.90;;;;;;5044768;28;20036;-69
2023/07/09 02:39:23;;;;;;;6.63;5.00;;;22.20;99.90;;;;;;5044151;28;20040;-69
2023/07/09 02:41:50;;;;;;;6.47;5.00;;;22.20;99.90;;;;;;5058923;28;20502;-69
2023/07/09 02:44:18;;;;;;;5.97;5.30;;;22.10;99.90;;;;;;5033482;28;20056;-69
2023/07/09 02:46:46;;;;;;;5.72;5.18;;;22.10;99.90;;;;;;5034094;28;20039;-70
2023/07/09 02:49:13;;;;;;;7.13;5.10;;;22.00;99.90;;;;;;5054765;28;20040;-69
2023/07/09 02:51:40;;;;;;;6.57;4.75;;;22.00;99.90;;;;;;5042510;28;20036;-69
2023/07/09 02:54:07;;;;;;;8.85;6.00;;;22.00;99.90;;;;;;5050051;28;20047;-69
2023/07/09 02:56:33;;;;;;;8.95;6.22;;;21.90;99.90;;;;;;5050543;28;20028;-70
2023/07/09 02:59:00;;;;;;;8.00;5.93;;;21.90;99.90;;;;;;5045894;28;20035;-69
2023/07/09 03:01:26;;;;;;;7.35;5.45;;;21.80;99.90;;;;;;5049015;28;20040;-69
2023/07/09 03:03:58;;;;;;;7.20;5.72;;;21.80;99.90;;;;;;5043541;28;20331;-69
2023/07/09 03:06:25;;;;;;;7.53;5.53;;;21.80;99.90;;;;;;5065118;28;20090;-69
2023/07/09 03:08:52;;;;;;;7.68;5.75;;;21.70;99.90;;;;;;5037400;28;20041;-69
2023/07/09 03:11:20;;;;;;;7.88;5.72;;;21.70;99.90;;;;;;5040093;28;20039;-70
2023/07/09 03:13:47;;;;;;;6.63;5.63;;;21.70;99.90;;;;;;5051602;28;20028;-70
2023/07/09 03:16:14;;;;;;;8.30;6.60;;;21.60;99.90;;;;;;5031937;28;20466;-69
2023/07/09 03:18:40;;;;;;;8.25;6.93;;;21.60;99.90;;;;;;5051308;28;20026;-70
2023/07/09 03:21:07;;;;;;;6.97;6.28;;;21.60;99.90;;;;;;5046035;28;21625;-69
2023/07/09 03:23:33;;;;;;;10.80;6.95;;;21.60;99.90;;;;;;5026420;28;20067;-69
2023/07/09 03:26:00;;;;;;;8.82;6.95;;;21.60;99.90;;;;;;5050404;28;20043;-69
2023/07/09 03:28:26;;;;;;;7.80;6.35;;;21.50;99.90;;;;;;5036901;28;20043;-69
2023/07/09 03:30:55;;;;;;;7.97;6.32;;;21.50;99.90;;;;;;5054394;28;20028;-69
2023/07/09 03:33:22;;;;;;;8.68;6.20;;;21.50;99.90;;;;;;5036969;28;20967;-69
2023/07/09 03:35:48;;;;;;;8.48;6.28;;;21.40;99.90;;;;;;5050230;28;20047;-69
2023/07/09 03:38:15;;;;;;;7.30;5.75;;;21.50;99.90;;;;;;5050063;28;20028;-69
2023/07/09 03:40:41;;;;;;;5.93;5.20;;;21.40;99.90;;;;;;5046589;28;20028;-69
2023/07/09 03:43:09;;;;;;;6.80;5.57;;;21.40;99.90;;;;;;5060205;28;20051;-69
2023/07/09 03:45:37;;;;;;;10.63;5.55;;;21.40;99.90;;;;;;5064067;28;20036;-69
2023/07/09 03:48:05;;;;;;;6.85;5.57;;;21.40;99.90;;;;;;5031571;28;20082;-69
2023/07/09 03:50:32;;;;;;;6.90;5.93;;;21.40;99.90;;;;;;5049613;28;20473;-69
2023/07/09 03:53:00;;;;;;;6.90;5.57;;;21.40;99.90;;;;;;5050104;28;20032;-69
2023/07/09 03:55:26;;;;;;;7.18;5.78;;;21.40;99.90;;;;;;5055178;28;20046;-69
2023/07/09 03:57:56;;;;;;;6.70;5.63;;;21.40;99.90;;;;;;5015832;28;20043;-69
2023/07/09 04:00:24;;;;;;;6.90;5.45;;;21.40;99.90;;;;;;5045277;28;20395;-69
2023/07/09 04:02:52;;;;;;;6.50;5.82;;;21.40;99.90;;;;;;5041786;28;20422;-69
2023/07/09 04:05:18;;;;;;;7.00;5.45;;;21.50;99.90;;;;;;5050121;28;20028;-69
2023/07/09 04:07:45;;;;;;;5.90;5.30;;;21.50;99.90;;;;;;5047931;28;20394;-69
2023/07/09 04:10:11;;;;;;;9.15;5.63;;;21.50;99.90;;;;;;5048122;28;20040;-69
2023/07/09 04:12:38;;;;;;;6.50;5.68;;;21.60;99.90;;;;;;5050875;28;20032;-69
2023/07/09 04:15:05;;;;;;;6.70;5.78;;;21.60;99.90;;;;;;5038854;28;20036;-69
2023/07/09 04:17:32;;;;;;;7.57;5.55;;;21.60;99.90;;;;;;5050662;28;20024;-69
2023/07/09 04:19:58;;;;;;;7.57;6.40;;;21.60;99.90;;;;;;5059622;28;20036;-69
2023/07/09 04:22:25;;;;;;;7.35;5.82;;;21.70;99.90;;;;;;5044606;28;20035;-69
2023/07/09 04:24:54;;;;;;;8.52;6.15;;;21.70;99.90;;;;;;5046240;28;20044;-69
2023/07/09 04:27:21;;;;;;;7.85;6.05;;;21.70;99.90;;;;;;5047987;28;20403;-69
2023/07/09 04:29:48;;;;;;;7.20;5.78;;;21.80;99.90;;;;;;5044150;28;20040;-69
2023/07/09 04:32:15;;;;;;;8.10;6.32;;;21.80;99.90;;;;;;5049958;28;20027;-69
2023/07/09 04:34:41;;;;;;;7.95;6.32;;;21.90;99.90;;;;;;5055593;28;20032;-69
2023/07/09 04:37:10;;;;;;;9.18;6.20;;;22.00;99.90;;;;;;5053463;28;20032;-69
2023/07/09 04:39:36;;;;;;;8.50;6.43;;;22.10;99.90;;;;;;5025779;28;20039;-69
2023/07/09 04:42:03;;;;;;;7.85;6.43;;;22.20;99.90;;;;;;5043664;28;20063;-69
2023/07/09 04:44:29;;;;;;;8.50;6.80;;;22.20;99.90;;;;;;5046822;28;20043;-69
2023/07/09 04:46:55;;;;;;;7.90;6.70;;;22.30;99.90;;;;;;5048438;28;20392;-69
2023/07/09 04:49:22;;;;;;;7.68;5.90;;;22.40;99.90;;;;;;5027852;28;20036;-69
2023/07/09 04:51:49;;;;;;;8.00;6.60;;;22.40;99.90;;;;;;5050986;28;20410;-69
2023/07/09 04:54:15;;;;;;;8.07;6.03;;;22.50;99.90;;;;;;5054670;28;20036;-69
2023/07/09 04:56:45;;;;;;;7.35;6.28;;;22.50;99.90;;;;;;5056226;28;20032;-69
2023/07/09 04:59:12;;;;;;;7.30;6.10;;;22.60;99.90;;;;;;5044722;28;20036;-69
2023/07/09 05:01:38;;;;;;;7.30;6.20;;;22.70;99.90;;;;;;5050696;28;20036;-70
2023/07/09 05:04:05;;;;;;;8.98;6.45;;;22.70;99.90;;;;;;5050432;28;20363;-69
2023/07/09 05:06:31;;;;;;;8.75;7.60;;;22.80;99.90;;;;;;5049941;28;20051;-69
2023/07/09 05:08:57;;;;;;;7.93;6.47;;;22.90;99.90;;;;;;5048938;28;20491;-69
2023/07/09 05:11:24;;;;;;;7.45;6.60;;;23.00;99.90;;;;;;5048845;28;20075;-69
2023/07/09 05:13:50;;;;;;;8.65;7.13;;;23.10;99.90;;;;;;5050961;28;20510;-68
2023/07/09 05:16:16;;;;;;;7.70;6.40;;;23.20;99.90;;;;;;5060967;28;20028;-69
2023/07/09 05:18:44;;;;;;;9.10;6.63;;;23.30;99.90;;;;;;5058083;28;20578;-69
2023/07/09 05:21:11;;;;;;;8.98;6.60;;;23.40;99.90;;;;;;5047271;28;20036;-69
2023/07/09 05:23:37;;;;;;;7.32;6.43;;;23.50;99.90;;;;;;5046013;28;20032;-69
2023/07/09 05:26:04;;;;;;;8.40;7.05;;;23.60;99.90;;;;;;5050750;28;20035;-69
2023/07/09 05:28:32;;;;;;;9.07;7.40;;;23.70;99.90;;;;;;5052950;28;20029;-69
2023/07/09 05:30:59;;;;;;;8.45;7.15;;;23.80;99.90;;;;;;5045292;28;20475;-69
2023/07/09 05:33:25;;;;;;;8.48;7.22;;;24.00;99.90;;;;;;5052008;28;20390;-69
2023/07/09 05:35:52;;;;;;;8.27;6.35;;;24.10;99.90;;;;;;5061076;28;20020;-69
2023/07/09 05:38:18;;;;;;;11.23;7.53;;;24.20;99.90;;;;;;5060270;28;20029;-69
2023/07/09 05:40:44;;;;;;;8.85;6.90;;;24.30;99.90;;;;;;5047576;28;20394;-69
2023/07/09 05:43:11;;;;;;;8.57;7.18;;;24.40;99.90;;;;;;5028743;28;20063;-69
2023/07/09 05:45:40;;;;;;;9.63;7.28;;;24.60;99.90;;;;;;5034987;28;20041;-69
2023/07/09 05:48:07;;;;;;;7.70;6.93;;;24.70;99.90;;;;;;5052915;28;20052;-69
2023/07/09 05:50:34;;;;;;;11.43;7.72;;;24.80;99.90;;;;;;5061502;28;20032;-69
2023/07/09 05:53:01;;;;;;;9.98;7.60;;;25.00;99.90;;;;;;5061955;28;20633;-70
2023/07/09 05:55:27;;;;;;;8.82;7.45;;;25.10;99.90;;;;;;5062169;28;20482;-69
2023/07/09 05:57:54;;;;;;;8.85;7.50;;;25.30;99.90;;;;;;5027815;28;20302;-69
2023/07/09 06:00:20;;;;;;;12.00;8.82;;;25.40;99.90;;;;;;5053986;28;20035;-69
2023/07/09 06:02:46;;;;;;;9.02;7.50;;;25.50;99.90;;;;;;5046250;28;20474;-69
2023/07/09 06:05:14;;;;;;;9.20;7.40;;;25.60;99.90;;;;;;5050991;28;20031;-70
2023/07/09 06:07:40;;;;;;;7.57;6.50;;;25.60;99.90;;;;;;5050417;28;20032;-70
2023/07/09 06:10:08;;;;;;;8.50;7.68;;;25.70;99.90;;;;;;5045620;28;20035;-69
2023/07/09 06:12:35;;;;;;;8.98;7.10;;;25.90;99.90;;;;;;5043570;28;20043;-69
2023/07/09 06:15:02;;;;;;;10.95;7.75;;;26.10;99.90;;;;;;5052555;28;20403;-69
2023/07/09 06:17:30;;;;;;;12.27;7.68;;;26.20;99.90;;;;;;5059348;28;20035;-69
2023/07/09 06:19:57;;;;;;;7.55;6.03;;;26.40;99.90;;;;;;5054338;28;20036;-69
2023/07/09 06:22:23;;;;;;;8.35;6.88;;;26.60;99.90;;;;;;5044411;28;20044;-69
2023/07/09 06:24:49;;;;;;;7.05;6.35;;;26.80;99.90;;;;;;5049957;28;20043;-69
2023/07/09 06:27:16;;;;;;;9.35;7.00;;;27.00;99.90;;;;;;5051615;28;20051;-69
2023/07/09 06:29:42;;;;;;;7.13;6.43;;;27.20;99.90;;;;;;5045095;28;20415;-69
2023/07/09 06:32:08;;;;;;;10.13;8.40;;;27.30;99.90;;;;;;5045488;28;20037;-69
2023/07/09 06:34:35;;;;;;;10.07;8.35;;;27.40;99.90;;;;;;5049517;28;20036;-69
2023/07/09 06:37:01;;;;;;;11.20;7.88;;;27.50;99.90;;;;;;5055998;28;20589;-69
2023/07/09 06:39:27;;;;;;;11.18;7.40;;;27.60;99.90;;;;;;5057174;28;20028;-70
2023/07/09 06:41:54;;;;;;;8.70;6.72;;;27.70;99.90;;;;;;5051112;28;20052;-69
2023/07/09 06:44:45;;;;;;;7.40;6.70;;;27.80;99.90;;;;;;5048850;28;20043;-69
2023/07/09 06:47:11;;;;;;;8.65;6.63;;;27.90;99.90;;;;;;5049566;28;20040;-69
2023/07/09 06:49:37;;;;;;;7.43;6.65;;;28.00;99.90;;;;;;5043354;28;22467;-69
2023/07/09 06:52:04;;;;;;;9.52;7.32;;;28.10;99.90;;;;;;5014443;28;20059;-69
2023/07/09 06:54:30;;;;;;;9.63;7.30;;;28.20;99.90;;;;;;5050216;28;20028;-70
2023/07/09 06:56:56;;;;;;;8.10;7.10;;;28.30;99.90;;;;;;5054931;28;20039;-69
2023/07/09 06:59:23;;;;;;;8.43;6.82;;;28.40;99.90;;;;;;5036562;28;20058;-69
2023/07/09 07:01:49;;;;;;;10.05;7.30;;;28.50;99.90;;;;;;5053681;28;20024;-69
2023/07/09 07:04:15;;;;;;;9.30;7.72;;;28.60;99.90;;;;;;5018698;28;20386;-69
2023/07/09 07:06:42;;;;;;;8.85;6.97;;;28.60;99.90;;;;;;5035261;28;20059;-70
2023/07/09 07:09:08;;;;;;;9.18;6.10;;;28.70;99.90;;;;;;5044415;28;20044;-69
2023/07/09 07:11:34;;;;;;;9.73;6.97;;;28.80;99.90;;;;;;5049072;28;20059;-69
2023/07/09 07:14:01;;;;;;;8.23;6.57;;;28.80;99.90;;;;;;5046479;28;20020;-70
2023/07/09 07:16:27;;;;;;;8.57;6.85;;;29.00;99.90;;;;;;5047870;28;20032;-69
2023/07/09 07:18:53;;;;;;;8.27;6.53;;;29.10;99.90;;;;;;5055016;28;20806;-69
2023/07/09 07:21:20;;;;;;;8.77;7.10;;;29.20;99.90;;;;;;5057724;28;20055;-69
2023/07/09 07:23:46;;;;;;;7.30;6.10;;;29.30;99.90;;;;;;5047887;28;20454;-69
2023/07/09 07:26:12;;;;;;;11.27;6.97;;;29.40;99.90;;;;;;5032714;28;20722;-68
2023/07/09 07:28:39;;;;;;;9.38;7.40;;;29.50;99.90;;;;;;5049389;28;20062;-72
2023/07/09 07:31:07;;;;;;;9.20;7.53;;;29.60;99.90;;;;;;5044921;28;20437;-70
2023/07/09 07:33:34;;;;;;;9.23;7.10;;;29.60;99.90;;;;;;5044775;28;20051;-71
2023/07/09 07:36:03;;;;;;;9.43;7.03;;;29.70;99.70;;;;;;5050919;28;20039;-71
2023/07/09 07:38:29;;;;;;;9.60;7.05;;;29.70;99.40;;;;;;5056947;28;20042;-80
2023/07/09 07:40:56;;;;;;;7.95;6.45;;;29.80;99.30;;;;;;5037046;28;20048;-69
2023/07/09 07:43:22;;;;;;;9.65;8.05;;;29.80;99.20;;;;;;5050632;28;20648;-70
2023/07/09 07:45:48;;;;;;;8.02;5.88;;;29.90;99.40;;;;;;5029658;28;20040;-69
2023/07/09 07:48:15;;;;;;;9.20;6.50;;;30.00;99.00;;;;;;5048016;28;20043;-70
2023/07/09 07:50:41;;;;;;;7.63;6.50;;;30.10;98.70;;;;;;5025563;28;20039;-69
2023/07/09 07:53:09;;;;;;;8.90;7.15;;;30.30;98.60;;;;;;5044487;28;20984;-69
2023/07/09 07:55:36;;;;;;;7.85;6.32;;;30.40;98.30;;;;;;5048864;28;21669;-69
2023/07/09 07:58:03;;;;;;;7.80;5.97;;;30.50;98.20;;;;;;5052197;28;20043;-70
2023/07/09 08:00:31;;;;;;;7.97;6.28;;;30.70;97.90;;;;;;5039258;28;20036;-69
2023/07/09 08:02:57;;;;;;;8.32;6.60;;;30.80;97.60;;;;;;5053134;28;20040;-69
2023/07/09 08:05:24;;;;;;;8.48;7.15;;;30.90;97.20;;;;;;5050578;28;20394;-69
2023/07/09 08:07:50;;;;;;;7.35;6.00;;;31.00;97.10;;;;;;5047163;28;20483;-69
2023/07/09 08:10:18;;;;;;;6.13;5.30;;;31.20;96.90;;;;;;5042787;28;20029;-69
2023/07/09 08:12:44;;;;;;;6.15;5.55;;;31.30;96.80;;;;;;5026290;28;20031;-67
2023/07/09 08:15:11;;;;;;;6.95;5.82;;;31.50;96.70;;;;;;5048716;28;20036;-70
2023/07/09 08:17:38;;;;;;;7.90;5.82;;;31.60;96.10;;;;;;5063145;28;20114;-70
2023/07/09 08:20:05;;;;;;;8.45;6.32;;;31.60;95.90;;;;;;5051801;28;20044;-70
2023/07/09 08:22:31;;;;;;;10.30;5.93;;;31.70;95.60;;;;;;5052201;28;20028;-70
2023/07/09 08:24:58;;;;;;;8.98;6.90;;;31.80;95.30;;;;;;5051543;28;20399;-70
2023/07/09 08:27:24;;;;;;;6.68;5.43;;;31.80;95.10;;;;;;5047539;28;20052;-70
2023/07/09 08:29:51;;;;;;;6.47;5.43;;;31.90;95.00;;;;;;5026542;28;20036;-70
2023/07/09 08:32:17;;;;;;;6.35;5.75;;;32.00;94.90;;;;;;5045770;28;20330;-70
2023/07/09 08:34:43;;;;;;;8.32;6.00;;;32.10;94.60;;;;;;5062235;28;20043;-70
2023/07/09 08:37:10;;;;;;;5.95;5.07;;;32.20;94.40;;;;;;5048526;28;20383;-70
2023/07/09 08:39:37;;;;;;;7.05;5.78;;;32.30;94.10;;;;;;5045345;28;20024;-70
2023/07/09 08:42:19;;;;;;;7.78;6.28;;;32.40;93.90;;;;;;5039150;28;20036;-70
2023/07/09 08:45:21;;;;;;;5.85;5.25;;;32.50;93.90;;;;;;5056558;28;20082;-70
2023/07/09 08:48:01;;;;;;;9.52;7.18;;;32.70;93.80;;;;;;5048208;28;20459;-70
2023/07/09 08:50:37;;;;;;;7.40;5.60;;;32.80;93.50;;;;;;5058720;28;20040;-70
2023/07/09 08:53:06;;;;;;;7.05;5.78;;;32.90;93.50;;;;;;5043645;28;20036;-70
2023/07/09 08:55:40;;;;;;;7.03;5.65;;;32.90;93.30;;;;;;5044535;28;20355;-70
2023/07/09 08:58:17;;;;;;;10.23;6.00;;;33.10;93.30;;;;;;5046183;28;20040;-70
2023/07/09 09:00:52;;;;;;;8.23;6.22;;;33.20;93.00;;;;;;5050300;28;20032;-70
2023/07/09 09:03:41;;;;;;;11.73;7.30;;;33.30;92.90;;;;;;5050851;28;20039;-70
2023/07/09 09:06:13;;;;;;;7.88;6.32;;;33.30;92.80;;;;;;5051287;28;21519;-70
2023/07/09 09:09:03;;;;;;;7.00;6.07;;;33.40;92.70;;;;;;5061240;28;20036;-70
2023/07/09 09:11:53;;;;;;;7.75;5.50;;;33.50;92.70;;;;;;5061382;28;20271;-70
2023/07/09 09:14:37;;;;;;;6.97;5.00;;;33.50;92.30;;;;;;5047548;28;20079;-70
2023/07/09 09:17:18;;;;;;;6.72;5.32;;;33.60;92.50;;;;;;5032956;28;20036;-70
2023/07/09 09:19:55;;;;;;;8.02;5.60;;;33.70;92.30;;;;;;5045526;28;20047;-70
2023/07/09 09:22:29;;;;;;;6.60;4.85;;;33.90;92.00;;;;;;5022621;28;20044;-70
2023/07/09 09:25:10;;;;;;;7.22;6.50;;;33.90;91.90;;;;;;5054916;28;20053;-70
2023/07/09 09:27:38;;;;;;;9.77;6.45;;;34.10;91.40;;;;;;5046504;28;20047;-70
2023/07/09 09:30:11;;;;;;;6.53;5.68;;;34.10;91.10;;;;;;5043256;28;20051;-70
2023/07/09 09:32:44;;;;;;;6.10;5.30;;;34.20;91.00;;;;;;5044215;28;20043;-70
2023/07/09 09:35:15;;;;;;;6.55;5.90;;;34.30;90.80;;;;;;5047572;28;20123;-70
2023/07/09 09:37:49;;;;;;;6.03;4.80;;;34.40;90.80;;;;;;5015036;28;20418;-70
2023/07/09 09:40:18;;;;;;;7.35;6.15;;;34.50;90.90;;;;;;5046731;28;20461;-70
2023/07/09 09:42:44;;;;;;;7.55;5.88;;;34.70;90.60;;;;;;5035317;28;20523;-70
2023/07/09 09:45:17;;;;;;;6.57;4.82;;;34.80;90.10;;;;;;5056635;28;20040;-70
2023/07/09 09:47:45;;;;;;;5.80;5.28;;;34.90;90.00;;;;;;5052575;28;20043;-70
2023/07/09 09:50:16;;;;;;;5.90;4.82;;;34.90;89.40;;;;;;5045068;28;20138;-70
2023/07/09 09:52:44;;;;;;;7.55;6.18;;;35.10;89.20;;;;;;5046049;28;20366;-70
2023/07/09 09:55:16;;;;;;;5.78;5.18;;;35.10;87.80;;;;;;5063932;28;20032;-70
2023/07/09 09:57:49;;;;;;;5.10;4.40;;;35.10;87.80;;;;;;5051792;28;20036;-70
2023/07/09 10:00:16;;;;;;;7.45;4.78;;;35.20;86.90;;;;;;5044567;28;20591;-70
2023/07/09 10:02:45;;;;;;;4.43;3.97;;;35.40;86.50;;;;;;5053084;28;20040;-70
2023/07/09 10:05:13;;;;;;;6.50;4.13;;;35.40;86.40;;;;;;5044433;28;20036;-70
2023/07/09 10:07:46;;;;;;;8.95;5.10;;;35.60;85.70;;;;;;5070561;28;20054;-70
2023/07/09 10:10:18;;;;;;;4.90;4.38;;;35.70;83.40;;;;;;5045054;28;20052;-70
2023/07/09 10:12:53;;;;;;;7.93;3.75;;;35.80;83.00;;;;;;5047605;28;20466;-70
2023/07/09 10:15:45;;;;;;;4.75;4.18;;;35.80;82.00;;;;;;5048802;28;20031;-70
2023/07/09 10:18:36;;;;;;;4.65;3.55;;;35.80;81.30;;;;;;5051058;28;20399;-70
2023/07/09 10:21:09;;;;;;;4.45;4.00;;;36.00;80.70;;;;;;5061628;28;20418;-70
2023/07/09 10:24:03;;;;;;;6.47;4.20;;;36.10;80.40;;;;;;5074114;28;20051;-70
2023/07/09 10:26:41;;;;;;;4.93;3.72;;;36.20;79.40;;;;;;5059631;28;20810;-70
2023/07/09 10:29:34;;;;;;;6.18;3.92;;;36.30;77.90;;;;;;5047788;28;20036;-70
2023/07/09 10:32:17;;;;;;;3.20;2.60;;;36.30;77.00;;;;;;5043408;28;20055;-70
2023/07/09 10:35:04;;;;;;;5.68;3.30;;;36.50;75.90;;;;;;5049247;28;20566;-70
2023/07/09 10:37:47;;;;;;;4.57;3.40;;;36.70;73.90;;;;;;5051062;28;20503;-70
2023/07/09 10:40:17;;;;;;;4.78;3.42;;;36.80;73.00;;;;;;5045736;28;20047;-70
2023/07/09 10:42:53;;;;;;;4.87;2.97;;;37.00;71.90;;;;;;5051435;28;20453;-70
2023/07/09 10:45:28;;;;;;;7.00;4.25;;;37.30;72.00;;;;;;5059994;28;20285;-70
2023/07/09 10:48:17;;;;;;;5.32;3.70;;;37.50;72.30;;;;;;5059748;28;20028;-70
2023/07/09 10:50:51;;;;;;;4.40;4.00;;;37.80;72.40;;;;;;5045284;28;20029;-70
2023/07/09 10:53:33;;;;;;;5.15;3.45;;;38.10;71.60;;;;;;5036511;28;20047;-70
2023/07/09 10:56:16;;;;;;;4.50;3.22;;;38.40;71.30;;;;;;5051906;28;20043;-70
2023/07/09 10:59:01;;;;;;;3.30;2.75;;;38.60;69.20;;;;;;5048504;28;20037;-70
2023/07/09 11:01:38;;;;;;;4.05;2.90;;;38.80;68.50;;;;;;5048860;28;20024;-68
2023/07/09 11:04:26;;;;;;;6.13;3.33;;;39.10;67.00;;;;;;5054635;28;20491;-70
2023/07/09 11:06:57;;;;;;;3.33;2.97;;;39.50;66.40;;;;;;5058476;28;20055;-68
2023/07/09 11:09:37;;;;;;;4.50;3.22;;;39.80;65.60;;;;;;5048134;28;20032;-68
2023/07/09 11:12:09;;;;;;;7.68;3.30;;;40.20;64.90;;;;;;5046006;28;20040;-68
2023/07/09 11:14:45;;;;;;;5.60;3.50;;;40.40;64.00;;;;;;5052741;28;20036;-69
2023/07/09 11:17:18;;;;;;;5.70;2.97;;;40.70;63.20;;;;;;5050729;28;20036;-69
2023/07/09 11:19:53;;;;;;;5.35;3.30;;;41.00;63.10;;;;;;5043006;28;20041;-69
2023/07/09 11:22:24;;;;;;;3.55;2.55;;;41.20;61.80;;;;;;5047008;28;20459;-68
2023/07/09 11:25:05;;;;;;;6.07;2.97;;;41.30;60.50;;;;;;5057110;28;20032;-69
2023/07/09 11:27:32;;;;;;;4.38;2.70;;;41.50;59.30;;;;;;5056668;28;22154;-69
2023/07/09 11:30:17;;;;;;;6.43;2.92;;;41.60;58.30;;;;;;5047821;28;20028;-70
2023/07/09 11:32:53;;;;;;;3.95;3.05;;;41.70;58.40;;;;;;5043741;28;20063;-72
2023/07/09 11:35:26;;;;;;;5.63;3.78;;;41.90;57.90;;;;;;5033289;28;20482;-75
2023/07/09 11:37:53;;;;;;;6.32;5.72;;;42.10;56.70;;;;;;5064393;28;20067;-71
2023/07/09 11:40:21;;;;;;;4.50;3.55;;;42.20;57.00;;;;;;5045171;28;20032;-69
2023/07/09 11:42:58;;;;;;;7.13;5.07;;;42.30;56.30;;;;;;5047437;28;20044;-70
2023/07/09 11:45:32;;;;;;;6.40;3.28;;;42.50;56.20;;;;;;5057931;28;20039;-70
2023/07/09 11:48:27;;;;;;;5.90;2.85;;;42.60;56.00;;;;;;5059570;28;20067;-69
2023/07/09 11:50:55;;;;;;;4.90;2.53;;;42.60;55.40;;;;;;5046655;28;20055;-69
2023/07/09 11:53:44;;;;;;;4.25;2.15;;;42.70;55.30;;;;;;5044079;28;20036;-70
2023/07/09 11:56:11;;;;;;;3.58;2.83;;;42.80;54.70;;;;;;5049855;28;20024;-74
2023/07/09 11:58:52;;;;;;;4.20;2.55;;;42.80;54.50;;;;;;5062312;28;20497;-73
2023/07/09 12:01:23;;;;;;;5.43;3.35;;;42.80;54.60;;;;;;5030066;28;20036;-73
2023/07/09 12:03:51;;;;;;;3.72;3.30;;;42.70;54.80;;;;;;5046529;28;20032;-72
2023/07/09 12:06:27;;;;;;;5.68;4.97;;;42.60;54.20;;;;;;5056353;28;20032;-73
2023/07/09 12:08:55;;;;;;;4.70;3.53;;;42.50;55.10;;;;;;5053454;28;20035;-73
2023/07/09 12:11:33;;;;;;;3.90;3.10;;;42.20;55.10;;;;;;5049185;28;20043;-73
2023/07/09 12:14:11;;;;;;;6.50;4.00;;;41.90;55.30;;;;;;5046637;28;20031;-73
2023/07/09 12:16:47;;;;;;;4.65;4.07;;;41.60;55.40;;;;;;5048368;28;20054;-75
2023/07/09 12:19:15;;;;;;;6.13;4.82;;;41.30;56.00;;;;;;5059759;28;20040;-73
2023/07/09 12:21:48;;;;;;;4.32;3.30;;;41.20;56.50;;;;;;5042692;28;20070;-69
2023/07/09 12:24:18;;;;;;;4.72;3.53;;;41.00;56.00;;;;;;5046819;28;21153;-69
2023/07/09 12:26:48;;;;;;;4.72;3.75;;;40.70;56.30;;;;;;5056869;28;20032;-69
2023/07/09 12:29:15;;;;;;;3.88;3.08;;;40.50;57.40;;;;;;5050210;28;20051;-72
2023/07/09 12:31:41;;;;;;;4.47;2.85;;;40.20;57.30;;;;;;5049821;28;20040;-72
2023/07/09 12:34:13;;;;;;;3.95;2.83;;;40.00;57.50;;;;;;5046320;28;20434;-72
2023/07/09 12:36:44;;;;;;;4.30;2.90;;;39.70;57.60;;;;;;5048357;28;20032;-71
2023/07/09 12:39:12;;;;;;;4.03;3.63;;;39.40;58.20;;;;;;5042407;28;20395;-71
2023/07/09 12:41:41;;;;;;;5.97;3.38;;;39.10;58.90;;;;;;5047704;28;20391;-73
2023/07/09 12:44:21;;;;;;;4.22;3.90;;;38.90;60.00;;;;;;5045792;28;20498;-73
2023/07/09 12:46:48;;;;;;;8.25;6.45;;;38.60;60.20;;;;;;5036988;28;20032;-73
2023/07/09 12:49:27;;;;;;;4.63;4.07;;;38.20;60.70;;;;;;5050992;28;20497;-73
2023/07/09 12:52:00;;;;;;;6.20;4.40;;;37.90;61.30;;;;;;5053663;28;20055;-72
2023/07/09 12:54:28;;;;;;;6.47;5.05;;;37.70;61.70;;;;;;5050873;28;20036;-68
2023/07/09 12:56:56;;;;;;;4.60;4.13;;;37.50;62.20;;;;;;5048761;28;20040;-77
2023/07/09 12:59:25;;;;;;;4.03;3.67;;;37.40;62.80;;;;;;5044868;28;20062;-70
2023/07/09 13:02:19;;;;;;;5.80;5.00;;;37.40;62.60;;;;;;5045742;28;20463;-70